Time;durP1;ratioP1;P1;durP2;ratioP2;P2;SDS_P1;SDS_P2;PMS_P1;PMS_P2;Temp;Humidity;BMP_temperature;BMP_pressure;BME280_temperature;BME280_humidity;BME280_pressure;Samples;Min_cycle;Max_cycle;Signal;HPM_P1;HPM_P2
2021/12/08 00:02:11;;;;;;;11.50;3.78;;;3.10;99.90;;;;;;5004353;28;20290;-58
2021/12/08 00:04:37;;;;;;;8.23;3.92;;;3.20;99.90;;;;;;5004580;28;20037;-56
2021/12/08 00:07:04;;;;;;;9.77;4.63;;;3.10;99.90;;;;;;5004200;28;20042;-57
2021/12/08 00:14:57;;;;;;;8.68;3.67;;;3.10;99.90;;;;;;5012964;28;20049;-57
2021/12/08 00:17:23;;;;;;;8.90;3.85;;;3.20;99.90;;;;;;5012426;28;20635;-55
2021/12/08 00:19:50;;;;;;;8.85;4.20;;;3.20;99.90;;;;;;5005768;28;20070;-57
2021/12/08 00:22:15;;;;;;;10.52;4.07;;;3.20;99.90;;;;;;5003273;28;20049;-57
2021/12/08 00:24:41;;;;;;;11.02;5.03;;;3.20;99.90;;;;;;5003533;28;20049;-57
2021/12/08 00:27:07;;;;;;;6.57;3.95;;;3.20;99.90;;;;;;5005295;28;20127;-58
2021/12/08 00:29:33;;;;;;;8.43;4.10;;;3.20;99.90;;;;;;5003979;28;20133;-56
2021/12/08 00:31:59;;;;;;;10.23;4.50;;;3.20;99.90;;;;;;5006299;28;20042;-58
2021/12/08 00:34:25;;;;;;;8.57;3.72;;;3.30;99.90;;;;;;5002996;28;20046;-57
2021/12/08 00:36:55;;;;;;;11.77;4.47;;;3.30;99.90;;;;;;5003854;28;20045;-55
2021/12/08 00:39:21;;;;;;;8.02;3.55;;;3.30;99.90;;;;;;5002387;28;20460;-57
2021/12/08 00:41:47;;;;;;;7.97;3.72;;;3.30;99.90;;;;;;5005466;28;20120;-58
2021/12/08 00:44:12;;;;;;;12.57;4.80;;;3.30;99.90;;;;;;5003446;28;20081;-57
2021/12/08 00:46:38;;;;;;;10.18;3.75;;;3.40;99.90;;;;;;5006338;28;20034;-57
2021/12/08 00:49:06;;;;;;;8.43;4.20;;;3.40;99.90;;;;;;5010087;28;20188;-57
2021/12/08 00:51:32;;;;;;;9.07;4.10;;;3.40;99.90;;;;;;5009371;28;20045;-57
2021/12/08 00:53:57;;;;;;;9.50;4.05;;;3.40;99.90;;;;;;5012843;28;20085;-57
2021/12/08 00:56:23;;;;;;;8.95;3.90;;;3.50;99.90;;;;;;5006514;28;20073;-57
2021/12/08 00:58:49;;;;;;;7.00;3.75;;;3.50;99.90;;;;;;5006907;28;20037;-56
2021/12/08 01:01:15;;;;;;;8.20;3.58;;;3.50;99.90;;;;;;5010086;28;20046;-57
2021/12/08 01:03:41;;;;;;;10.02;4.20;;;3.50;99.90;;;;;;5012184;28;20128;-57
2021/12/08 01:06:06;;;;;;;4.88;3.08;;;3.60;99.90;;;;;;5008174;28;20125;-57
2021/12/08 01:08:32;;;;;;;6.60;3.90;;;3.50;99.90;;;;;;5007810;28;20116;-57
2021/12/08 01:11:03;;;;;;;6.88;4.32;;;3.60;99.90;;;;;;5010007;28;20411;-56
2021/12/08 01:13:29;;;;;;;11.05;3.92;;;3.60;99.90;;;;;;5010816;28;20030;-58
2021/12/08 01:15:57;;;;;;;7.80;3.72;;;3.60;99.90;;;;;;5005106;28;20070;-56
2021/12/08 01:18:24;;;;;;;6.47;3.17;;;3.70;99.90;;;;;;5002614;28;20084;-58
2021/12/08 01:20:52;;;;;;;9.07;4.30;;;3.60;99.90;;;;;;5002685;28;20054;-57
2021/12/08 01:23:19;;;;;;;5.68;3.15;;;3.70;99.90;;;;;;5001756;28;20516;-58
2021/12/08 01:25:45;;;;;;;5.32;3.30;;;3.70;99.90;;;;;;5002686;28;20128;-58
2021/12/08 01:28:11;;;;;;;5.63;3.25;;;3.70;99.90;;;;;;5010849;28;20129;-57
2021/12/08 01:30:37;;;;;;;7.10;3.30;;;3.70;99.90;;;;;;5009984;28;20520;-58
2021/12/08 01:33:03;;;;;;;5.75;3.25;;;3.70;99.90;;;;;;5004876;28;20129;-59
2021/12/08 01:35:30;;;;;;;8.70;3.55;;;3.70;99.90;;;;;;5007701;28;20192;-57
2021/12/08 01:37:56;;;;;;;6.68;3.40;;;3.70;99.90;;;;;;5007784;28;20046;-57
2021/12/08 01:40:22;;;;;;;8.98;3.80;;;3.60;99.90;;;;;;5007772;28;20046;-57
2021/12/08 01:42:51;;;;;;;8.23;3.40;;;3.70;99.90;;;;;;5005957;28;20049;-57
2021/12/08 01:48:08;;;;;;;7.10;3.28;;;3.70;99.90;;;;;;5006911;28;20121;-58
2021/12/08 01:50:34;;;;;;;5.70;3.20;;;3.70;99.90;;;;;;5006848;28;20037;-58
2021/12/08 01:53:00;;;;;;;5.55;3.65;;;3.70;99.90;;;;;;5007366;28;20057;-58
2021/12/08 01:55:26;;;;;;;6.97;3.22;;;3.70;99.90;;;;;;5007408;28;20034;-57
2021/12/08 01:57:51;;;;;;;6.45;3.38;;;3.70;99.90;;;;;;5007313;28;20568;-57
2021/12/08 02:00:26;;;;;;;8.15;3.45;;;3.70;99.90;;;;;;5013799;28;20450;-56
2021/12/08 02:02:52;;;;;;;7.82;3.35;;;3.70;99.90;;;;;;5006743;28;20050;-58
2021/12/08 02:05:17;;;;;;;9.10;3.40;;;3.60;99.90;;;;;;5008113;28;20084;-58
2021/12/08 02:07:44;;;;;;;6.13;3.25;;;3.60;99.90;;;;;;5005851;28;20436;-58
2021/12/08 02:10:11;;;;;;;7.07;3.30;;;3.60;99.90;;;;;;5005089;28;20042;-58
2021/12/08 02:12:40;;;;;;;5.72;3.35;;;3.60;99.90;;;;;;5005205;28;20038;-58
2021/12/08 02:15:08;;;;;;;7.35;3.45;;;3.60;99.90;;;;;;5007582;28;20113;-57
2021/12/08 02:17:34;;;;;;;6.47;3.30;;;3.60;99.90;;;;;;5014279;28;20042;-58
2021/12/08 02:20:03;;;;;;;7.50;3.72;;;3.60;99.90;;;;;;5010128;28;20443;-58
2021/12/08 02:22:29;;;;;;;8.30;3.38;;;3.60;99.90;;;;;;5011246;28;20049;-58
2021/12/08 02:24:54;;;;;;;9.50;3.50;;;3.60;99.90;;;;;;5014598;28;20507;-56
2021/12/08 02:27:20;;;;;;;11.40;3.67;;;3.60;99.90;;;;;;5015336;28;20365;-58
2021/12/08 02:29:54;;;;;;;5.28;3.22;;;3.60;99.90;;;;;;5014948;28;20042;-57
2021/12/08 02:48:34;;;;;;;5.40;3.92;;;3.70;99.90;;;;;;4966597;28;20059;-57
2021/12/08 02:50:59;;;;;;;8.40;3.95;;;3.70;99.90;;;;;;4966703;28;20061;-58
2021/12/08 02:53:25;;;;;;;6.10;4.03;;;3.70;99.90;;;;;;4968582;28;20057;-59
2021/12/08 02:55:51;;;;;;;7.97;4.35;;;3.80;99.90;;;;;;4967389;28;20718;-56
2021/12/08 02:58:18;;;;;;;7.15;3.85;;;3.80;99.90;;;;;;4967877;28;20050;-58
2021/12/08 03:00:51;;;;;;;7.65;3.90;;;3.80;99.90;;;;;;4966584;28;20058;-56
2021/12/08 03:03:17;;;;;;;8.35;5.22;;;3.80;99.90;;;;;;4966463;28;20054;-57
2021/12/08 03:05:43;;;;;;;8.15;4.47;;;3.80;99.90;;;;;;4966789;28;20399;-58
2021/12/08 03:08:08;;;;;;;6.78;4.53;;;3.80;99.90;;;;;;4966047;28;20093;-57
2021/12/08 03:10:41;;;;;;;9.90;4.28;;;3.90;99.90;;;;;;4966913;28;20074;-57
2021/12/08 03:13:07;;;;;;;10.10;4.95;;;3.90;99.90;;;;;;4966756;28;20051;-57
2021/12/08 03:15:35;;;;;;;8.20;4.68;;;3.90;99.90;;;;;;4966386;28;20060;-58
2021/12/08 03:18:01;;;;;;;8.15;4.50;;;4.00;99.90;;;;;;4996522;28;20053;-58
2021/12/08 03:20:38;;;;;;;5.53;3.80;;;4.00;99.90;;;;;;5005459;28;20076;-58
2021/12/08 03:23:05;;;;;;;5.95;4.60;;;;;;;;;;5005509;28;20137;-58
2021/12/08 03:25:36;;;;;;;6.03;4.45;;;4.20;99.90;;;;;;5005120;28;20057;-57
2021/12/08 03:28:08;;;;;;;8.82;4.85;;;4.20;99.90;;;;;;5006036;28;20053;-57
2021/12/08 03:30:40;;;;;;;6.50;4.82;;;4.30;99.90;;;;;;5005269;28;20526;-57
2021/12/08 03:33:06;;;;;;;9.73;5.03;;;4.30;99.90;;;;;;5004931;28;20054;-57
2021/12/08 03:35:31;;;;;;;9.80;5.00;;;4.40;99.90;;;;;;5010632;28;20340;-57
2021/12/08 03:37:58;;;;;;;8.20;4.85;;;4.40;99.90;;;;;;5012498;28;20041;-58
2021/12/08 03:40:26;;;;;;;7.45;4.82;;;4.50;99.90;;;;;;5013653;28;20050;-57
2021/12/08 03:42:54;;;;;;;8.45;6.25;;;4.50;99.90;;;;;;5003692;28;20042;-57
2021/12/08 03:45:25;;;;;;;9.50;5.82;;;4.60;99.90;;;;;;5006519;28;20061;-57
2021/12/08 03:48:02;;;;;;;7.40;5.65;;;4.60;99.90;;;;;;5004986;28;20050;-56
2021/12/08 03:50:28;;;;;;;7.72;5.85;;;4.70;99.90;;;;;;5004933;28;20038;-58
2021/12/08 03:52:54;;;;;;;8.20;6.05;;;4.70;99.90;;;;;;5004962;28;20034;-57
2021/12/08 03:55:20;;;;;;;5.30;4.78;;;4.70;99.90;;;;;;5003777;28;20476;-58
2021/12/08 03:57:45;;;;;;;7.13;5.80;;;4.70;99.90;;;;;;5004918;28;20153;-59
2021/12/08 04:00:15;;;;;;;8.88;6.15;;;4.70;99.90;;;;;;5004554;28;20659;-57
2021/12/08 04:02:40;;;;;;;11.05;6.53;;;4.70;99.90;;;;;;5003968;28;20045;-58
2021/12/08 04:05:07;;;;;;;8.57;5.50;;;4.70;99.90;;;;;;5005619;28;20092;-57
2021/12/08 04:07:33;;;;;;;9.82;6.03;;;4.70;99.90;;;;;;5005429;28;20121;-57
2021/12/08 04:09:59;;;;;;;8.50;6.30;;;4.70;99.90;;;;;;5005515;28;20149;-56
2021/12/08 04:12:25;;;;;;;7.22;6.32;;;4.80;99.90;;;;;;5004492;28;20111;-58
2021/12/08 04:15:03;;;;;;;10.13;6.40;;;4.80;99.90;;;;;;5004824;28;20037;-58
2021/12/08 04:17:33;;;;;;;7.63;6.13;;;4.80;99.90;;;;;;5005902;28;20119;-58
2021/12/08 04:20:02;;;;;;;7.35;6.13;;;4.80;99.90;;;;;;5004787;28;20160;-57
2021/12/08 04:22:38;;;;;;;8.07;6.00;;;4.80;99.90;;;;;;5004456;28;20038;-59
2021/12/08 04:25:07;;;;;;;10.02;5.90;;;4.80;99.90;;;;;;5004799;28;20162;-56
2021/12/08 04:27:37;;;;;;;7.70;5.90;;;4.80;99.90;;;;;;5011528;28;20586;-58
2021/12/08 04:30:19;;;;;;;9.77;5.80;;;4.80;99.90;;;;;;5012223;28;20049;-58
2021/12/08 04:32:45;;;;;;;9.70;6.13;;;4.90;99.90;;;;;;5012708;28;20042;-58
2021/12/08 04:35:11;;;;;;;10.75;6.03;;;4.90;99.90;;;;;;5009284;28;20076;-58
2021/12/08 04:37:44;;;;;;;10.45;5.97;;;4.90;99.90;;;;;;5012526;28;20128;-58
2021/12/08 04:40:38;;;;;;;8.13;5.85;;;4.90;99.90;;;;;;5011426;28;20741;-55
2021/12/08 04:43:15;;;;;;;9.80;6.28;;;4.90;99.90;;;;;;5013597;28;20053;-58
2021/12/08 04:46:23;;;;;;;7.85;6.07;;;4.90;99.90;;;;;;5010439;28;20045;-58
2021/12/08 05:00:13;;;;;;;7.63;5.93;;;;;;;;;;5010370;28;20050;-58
2021/12/08 05:10:16;;;;;;;10.57;5.88;;;;;;;;;;5013479;28;20504;-57
2021/12/08 05:12:43;;;;;;;8.95;5.32;;;;;;;;;;5012392;28;20042;-58
2021/12/08 05:15:12;;;;;;;8.02;5.57;;;;;;;;;;5010272;28;20112;-57
2021/12/08 05:17:49;;;;;;;9.38;5.38;;;;;;;;;;5011474;28;20077;-57
2021/12/08 05:20:25;;;;;;;9.27;5.32;;;;;;;;;;5012082;28;20046;-57
2021/12/08 05:22:54;;;;;;;6.72;4.90;;;;;;;;;;5012950;28;20073;-57
2021/12/08 05:25:23;;;;;;;7.40;5.55;;;;;;;;;;5013137;28;20054;-58
2021/12/08 05:27:51;;;;;;;8.00;5.40;;;;;;;;;;5013038;28;20124;-57
2021/12/08 05:30:24;;;;;;;7.68;4.88;;;;;;;;;;5009941;28;20088;-57
2021/12/08 05:32:51;;;;;;;6.03;5.32;;;;;;;;;;5012122;28;20105;-58
2021/12/08 05:35:18;;;;;;;8.40;5.03;;;;;;;;;;5011635;28;20423;-57
2021/12/08 05:37:44;;;;;;;7.68;4.68;;;;;;;;;;5012554;28;20042;-59
2021/12/08 05:40:12;;;;;;;6.30;4.32;;;;;;;;;;5012520;28;20144;-57
2021/12/08 05:42:38;;;;;;;9.23;4.45;;;;;;;;;;5013095;28;20072;-57
2021/12/08 05:45:06;;;;;;;6.00;4.72;;;;;;;;;;5005749;28;20046;-58
2021/12/08 05:47:32;;;;;;;;;;;;;;;;;;5004226;28;20054;-57
2021/12/08 05:49:59;;;;;;;8.25;4.13;;;;;;;;;;5003295;28;19971;-56
2021/12/08 05:52:25;;;;;;;7.97;4.50;;;;;;;;;;5003722;28;20049;-58
2021/12/08 05:54:52;;;;;;;8.65;4.78;;;;;;;;;;5003097;28;20034;-59
2021/12/08 05:57:36;;;;;;;10.70;4.88;;;;;;;;;;5010646;28;20069;-59
2021/12/08 06:00:07;;;;;;;7.03;4.45;;;;;;;;;;5003011;28;20050;-58
2021/12/08 06:02:35;;;;;;;6.82;4.32;;;;;;;;;;5003833;28;20042;-58
2021/12/08 06:05:01;;;;;;;7.75;4.57;;;;;;;;;;5003147;28;20183;-57
2021/12/08 06:07:27;;;;;;;6.05;4.60;;;;;;;;;;5003253;28;20049;-58
2021/12/08 06:09:54;;;;;;;6.53;4.50;;;;;;;;;;5002981;28;20150;-57
2021/12/08 06:12:21;;;;;;;7.88;4.80;;;;;;;;;;5008015;28;20057;-59
2021/12/08 06:14:53;;;;;;;9.63;4.38;;;;;;;;;;5003171;28;20137;-57
2021/12/08 06:17:19;;;;;;;7.20;4.13;;;;;;;;;;5003155;28;20128;-58
2021/12/08 06:19:46;;;;;;;6.88;4.43;;;;;;;;;;5005569;28;20333;-58
2021/12/08 06:22:13;;;;;;;7.80;4.10;;;;;;;;;;5006119;28;20113;-58
2021/12/08 06:24:40;;;;;;;6.03;3.87;;;;;;;;;;5006250;28;20046;-58
2021/12/08 06:27:06;;;;;;;7.15;4.20;;;;;;;;;;5006585;28;20038;-58
2021/12/08 06:29:33;;;;;;;8.57;3.90;;;;;;;;;;5006228;28;20165;-58
2021/12/08 06:32:00;;;;;;;6.80;3.75;;;;;;;;;;5008055;28;20100;-58
2021/12/08 06:34:27;;;;;;;8.80;3.97;;;;;;;;;;5006223;28;20133;-58
2021/12/08 06:36:56;;;;;;;7.68;3.70;;;;;;;;;;5005768;28;20111;-56
2021/12/08 06:39:25;;;;;;;6.68;3.20;;;;;;;;;;5006746;28;20496;-58
2021/12/08 06:41:53;;;;;;;8.10;3.40;;;;;;;;;;5012098;28;20076;-58
2021/12/08 06:44:22;;;;;;;6.45;3.67;;;;;;;;;;5013303;28;20046;-58
2021/12/08 06:46:49;;;;;;;6.28;3.20;;;;;;;;;;5013862;28;20072;-57
2021/12/08 06:49:17;;;;;;;5.70;2.90;;;;;;;;;;5014597;28;20054;-56
2021/12/08 06:51:45;;;;;;;8.00;3.17;;;;;;;;;;5014618;28;20057;-58
2021/12/08 06:54:11;;;;;;;;;;;;;;;;;;5012367;28;20312;-58
2021/12/08 06:56:39;;;;;;;5.95;3.08;;;;;;;;;;5012422;28;20265;-58
2021/12/08 06:59:05;;;;;;;;;;;;;;;;;;5007380;28;20041;-58
2021/12/08 07:01:55;;;;;;;5.18;2.75;;;;;;;;;;5009020;28;20415;-58
2021/12/08 07:04:54;;;;;;;8.23;3.38;;;;;;;;;;5004685;28;20456;-57
2021/12/08 07:07:23;;;;;;;6.88;3.30;;;;;;;;;;5005266;28;20114;-59
2021/12/08 07:09:55;;;;;;;9.55;2.70;;;;;;;;;;5004685;28;20046;-58
2021/12/08 07:12:27;;;;;;;7.03;3.08;;;;;;;;;;5005692;28;20049;-59
2021/12/08 07:14:56;;;;;;;6.43;2.50;;;;;;;;;;5005123;28;20420;-58
2021/12/08 07:17:24;;;;;;;9.07;2.72;;;;;;;;;;5007516;28;20042;-58
2021/12/08 07:20:02;;;;;;;8.30;2.75;;;;;;;;;;5004192;28;20073;-57
2021/12/08 07:22:30;;;;;;;5.75;2.47;;;;;;;;;;5005571;28;20100;-58
2021/12/08 07:24:57;;;;;;;6.03;2.33;;;;;;;;;;5013469;28;20137;-58
2021/12/08 07:27:26;;;;;;;7.05;2.13;;;;;;;;;;5014673;28;20057;-58
2021/12/08 07:29:53;;;;;;;6.38;2.67;;;;;;;;;;5008064;28;20041;-58
2021/12/08 07:32:32;;;;;;;12.07;2.70;;;5.20;99.90;;;;;;5007168;28;20108;-56
2021/12/08 07:35:16;;;;;;;7.25;2.28;;;5.20;99.90;;;;;;5003625;28;20045;-58
2021/12/08 07:37:41;;;;;;;7.18;3.00;;;5.20;99.90;;;;;;5003704;28;20415;-58
2021/12/08 07:40:43;;;;;;;7.90;2.63;;;5.20;99.90;;;;;;5003777;28;20056;-57
2021/12/08 07:43:14;;;;;;;6.25;2.30;;;5.20;99.90;;;;;;5004676;28;20451;-57
2021/12/08 07:45:47;;;;;;;7.30;2.40;;;5.20;99.90;;;;;;5009520;28;20191;-58
2021/12/08 07:48:23;;;;;;;9.32;2.20;;;5.20;99.90;;;;;;5010569;28;20143;-58
2021/12/08 07:50:55;;;;;;;8.00;2.85;;;5.20;99.90;;;;;;5013865;28;20041;-58
2021/12/08 07:53:24;;;;;;;7.68;2.40;;;5.20;99.90;;;;;;5014836;28;20061;-58
2021/12/08 07:55:54;;;;;;;5.85;1.88;;;5.20;99.90;;;;;;5013309;28;20129;-58
2021/12/08 07:58:21;;;;;;;7.40;2.10;;;5.30;99.90;;;;;;4997085;28;20061;-58
2021/12/08 08:01:12;;;;;;;8.80;2.58;;;5.30;99.90;;;;;;5008917;28;20042;-58
2021/12/08 08:03:39;;;;;;;6.57;2.10;;;5.20;99.90;;;;;;4994812;28;20043;-58
2021/12/08 08:06:11;;;;;;;7.00;1.83;;;5.20;99.90;;;;;;5012815;28;20042;-58
2021/12/08 08:08:37;;;;;;;8.10;2.40;;;5.20;99.90;;;;;;5012039;28;20046;-57
2021/12/08 08:11:09;;;;;;;7.13;2.30;;;5.20;99.90;;;;;;5006706;28;21616;-58
2021/12/08 08:13:36;;;;;;;5.70;2.00;;;5.10;99.90;;;;;;5008756;28;20081;-56
2021/12/08 08:16:07;;;;;;;10.75;2.53;;;5.00;99.90;;;;;;5010663;28;20045;-59
2021/12/08 08:18:38;;;;;;;8.38;2.28;;;5.10;99.90;;;;;;5014401;28;20476;-58
2021/12/08 08:21:08;;;;;;;7.68;2.47;;;5.10;99.90;;;;;;5011015;28;20057;-58
2021/12/08 08:23:34;;;;;;;8.73;1.90;;;5.10;99.90;;;;;;5013410;28;20151;-58
2021/12/08 08:26:03;;;;;;;11.00;2.40;;;5.20;99.90;;;;;;5012861;28;20066;-59
2021/12/08 08:28:29;;;;;;;7.93;2.40;;;5.20;99.90;;;;;;5014960;28;20050;-58
2021/12/08 08:30:57;;;;;;;8.10;2.10;;;;;;;;;;5012747;28;20046;-58
2021/12/08 08:33:25;;;;;;;6.50;2.05;;;5.20;99.90;;;;;;5013547;28;20099;-58
2021/12/08 08:36:03;;;;;;;8.73;2.40;;;5.30;99.90;;;;;;5010965;28;20042;-58
2021/12/08 08:38:31;;;;;;;6.88;2.50;;;;;;;;;;5009660;28;20069;-58
2021/12/08 08:41:00;;;;;;;8.05;2.58;;;;;;;;;;5011993;28;20061;-57
2021/12/08 08:43:26;;;;;;;6.95;2.20;;;;;;;;;;5014040;28;20348;-59
2021/12/08 08:45:52;;;;;;;7.03;2.22;;;;;;;;;;5012596;28;20040;-58
2021/12/08 08:48:21;;;;;;;8.57;2.13;;;;;;;;;;5013084;28;20050;-58
2021/12/08 08:50:53;;;;;;;7.95;2.03;;;;;;;;;;5005098;28;20096;-58
2021/12/08 08:53:21;;;;;;;6.32;2.05;;;;;;;;;;4993573;28;20060;-58
2021/12/08 08:55:56;;;;;;;13.48;2.80;;;;;;;;;;4995375;28;20042;-58
2021/12/08 08:58:24;;;;;;;7.93;2.35;;;;;;;;;;5013225;28;20089;-58
2021/12/08 09:00:53;;;;;;;11.57;2.20;;;;;;;;;;5012305;28;20486;-58
2021/12/08 09:03:22;;;;;;;13.07;2.50;;;;;;;;;;5013428;28;20538;-58
2021/12/08 09:05:59;;;;;;;10.45;2.90;;;;;;;;;;5012714;28;20444;-58
2021/12/08 09:08:27;;;;;;;10.35;2.55;;;;;;;;;;5013425;28;20037;-58
2021/12/08 09:10:58;;;;;;;10.57;2.60;;;;;;;;;;5010833;28;20408;-58
2021/12/08 09:13:31;;;;;;;9.43;2.35;;;;;;;;;;5012984;28;20072;-58
2021/12/08 09:16:00;;;;;;;8.80;2.42;;;;;;;;;;5010332;28;21422;-58
2021/12/08 09:18:54;;;;;;;14.02;3.13;;;;;;;;;;5011938;28;20495;-58
2021/12/08 09:21:23;;;;;;;12.00;2.47;;;;;;;;;;5008957;28;20104;-58
2021/12/08 09:23:58;;;;;;;6.63;2.25;;;;;;;;;;5012010;28;20050;-58
2021/12/08 09:26:25;;;;;;;10.90;2.97;;;;;;;;;;5011993;28;20045;-58
2021/12/08 09:29:00;;;;;;;11.33;2.57;;;;;;;;;;5009645;28;20077;-58
2021/12/08 09:31:35;;;;;;;10.25;2.40;;;;;;;;;;5009673;28;20046;-57
2021/12/08 09:34:19;;;;;;;10.00;3.03;;;;;;;;;;5000897;28;20133;-58
2021/12/08 09:36:47;;;;;;;10.05;2.75;;;;;;;;;;4989222;28;20057;-58
2021/12/08 09:39:15;;;;;;;11.60;2.83;;;;;;;;;;5008237;28;20115;-58
2021/12/08 09:41:41;;;;;;;;;;;;;;;;;;5009791;28;20061;-58
2021/12/08 09:44:15;;;;;;;13.15;2.65;;;;;;;;;;5008473;28;19953;-57
2021/12/08 09:46:43;;;;;;;7.55;2.40;;;;;;;;;;5004816;28;20046;-57
2021/12/08 09:49:10;;;;;;;10.85;3.03;;;;;;;;;;5006858;28;20058;-58
2021/12/08 09:51:37;;;;;;;10.68;2.83;;;6.10;99.90;;;;;;5012217;28;20037;-57
2021/12/08 09:54:03;;;;;;;11.70;2.78;;;6.10;99.90;;;;;;5013966;28;20112;-58
2021/12/08 09:56:30;;;;;;;9.98;2.53;;;6.10;99.90;;;;;;5016208;28;20121;-57
2021/12/08 09:58:56;;;;;;;9.07;2.47;;;6.10;99.90;;;;;;5015884;28;20112;-55
2021/12/08 10:01:24;;;;;;;7.30;2.33;;;6.00;99.90;;;;;;5015551;28;20041;-56
2021/12/08 10:03:51;;;;;;;8.33;2.80;;;6.00;99.90;;;;;;5015723;28;20363;-56
2021/12/08 10:06:19;;;;;;;6.85;2.35;;;6.00;99.90;;;;;;5016028;28;20370;-56
2021/12/08 10:08:47;;;;;;;8.82;2.55;;;6.10;99.90;;;;;;4998264;28;20050;-58
2021/12/08 10:11:13;;;;;;;8.43;2.30;;;6.00;99.90;;;;;;5012869;28;20065;-58
2021/12/08 10:13:40;;;;;;;7.13;2.58;;;6.10;99.90;;;;;;5010532;28;20038;-57
2021/12/08 10:16:13;;;;;;;7.45;2.53;;;6.10;99.90;;;;;;5014233;28;20124;-58
2021/12/08 10:18:39;;;;;;;8.30;2.50;;;6.00;99.90;;;;;;5012417;28;20034;-58
2021/12/08 10:21:05;;;;;;;11.80;2.85;;;6.00;99.90;;;;;;5015371;28;20038;-57
2021/12/08 10:23:38;;;;;;;12.43;2.53;;;5.90;99.90;;;;;;5014949;28;20053;-58
2021/12/08 10:26:07;;;;;;;9.40;2.72;;;5.90;99.90;;;;;;5014987;28;20053;-57
2021/12/08 10:28:41;;;;;;;8.15;2.65;;;5.80;99.90;;;;;;5015422;28;20092;-58
2021/12/08 10:31:11;;;;;;;10.43;2.90;;;5.90;99.90;;;;;;5015182;28;20053;-58
2021/12/08 10:36:57;;;;;;;9.23;2.42;;;5.90;99.90;;;;;;5007753;28;20047;-58
2021/12/08 10:39:35;;;;;;;8.27;2.67;;;5.90;99.90;;;;;;4977872;28;20050;-58
2021/12/08 10:42:17;;;;;;;8.00;2.67;;;5.90;99.90;;;;;;5014176;28;20104;-57
2021/12/08 10:45:11;;;;;;;7.80;2.55;;;5.90;99.90;;;;;;5013987;28;20053;-58
2021/12/08 10:47:44;;;;;;;6.90;2.70;;;5.90;99.90;;;;;;5012348;28;20353;-59
2021/12/08 10:56:15;;;;;;;8.25;3.08;;;6.00;99.90;;;;;;5010894;28;20073;-58
2021/12/08 10:58:47;;;;;;;9.80;2.72;;;6.10;99.90;;;;;;5012637;28;20065;-58
2021/12/08 11:01:24;;;;;;;9.65;2.45;;;6.10;99.90;;;;;;5013424;28;20399;-58
2021/12/08 11:03:57;;;;;;;8.40;2.33;;;6.20;99.90;;;;;;5013809;28;20369;-58
2021/12/08 11:06:23;;;;;;;11.38;2.97;;;6.20;99.90;;;;;;5013217;28;20038;-58
2021/12/08 11:08:51;;;;;;;15.13;2.50;;;6.20;99.90;;;;;;5014032;28;20373;-57
2021/12/08 11:11:24;;;;;;;14.05;3.28;;;6.10;99.90;;;;;;5013254;28;20049;-58
2021/12/08 11:13:56;;;;;;;7.75;2.65;;;6.10;99.90;;;;;;4999100;28;20049;-58
2021/12/08 11:16:31;;;;;;;7.75;2.60;;;6.10;99.90;;;;;;5013483;28;20088;-58
2021/12/08 11:19:04;;;;;;;9.20;1.92;;;6.10;99.90;;;;;;5012650;28;20052;-59
2021/12/08 11:21:37;;;;;;;10.45;2.65;;;6.00;99.90;;;;;;5013055;28;20060;-59
2021/12/08 11:24:12;;;;;;;10.20;2.70;;;6.00;99.90;;;;;;5010754;28;20096;-58
2021/12/08 11:26:41;;;;;;;9.32;3.03;;;6.00;99.90;;;;;;5008204;28;20049;-58
2021/12/08 11:29:25;;;;;;;8.40;2.35;;;6.10;99.90;;;;;;5007201;28;20042;-58
2021/12/08 11:31:59;;;;;;;12.55;2.72;;;6.10;99.90;;;;;;5010571;28;20052;-58
2021/12/08 11:34:34;;;;;;;8.52;2.40;;;6.10;99.90;;;;;;5014522;28;20050;-58
2021/12/08 11:37:13;;;;;;;7.45;2.35;;;6.00;99.90;;;;;;5013231;28;20042;-57
2021/12/08 11:39:42;;;;;;;9.45;2.55;;;6.00;99.90;;;;;;5013269;28;20048;-58
2021/12/08 11:42:16;;;;;;;10.43;2.70;;;6.10;99.90;;;;;;5011564;28;20072;-57
2021/12/08 11:44:47;;;;;;;7.13;2.45;;;6.10;99.90;;;;;;5012495;28;20145;-58
2021/12/08 11:47:17;;;;;;;6.28;2.13;;;6.10;99.90;;;;;;5013291;28;20041;-58
2021/12/08 11:49:49;;;;;;;10.65;2.40;;;6.10;99.90;;;;;;5013047;28;21006;-58
2021/12/08 11:52:19;;;;;;;10.07;2.90;;;6.10;99.90;;;;;;5013535;28;20068;-58
2021/12/08 11:55:00;;;;;;;6.55;2.45;;;6.20;99.90;;;;;;5012924;28;20076;-58
2021/12/08 11:57:32;;;;;;;7.82;2.40;;;6.20;99.90;;;;;;5012244;28;20480;-59
2021/12/08 12:00:10;;;;;;;11.02;2.72;;;6.30;99.90;;;;;;5010817;28;20532;-58
2021/12/08 12:02:40;;;;;;;9.32;2.53;;;6.30;99.90;;;;;;5010496;28;20514;-58
2021/12/08 12:05:28;;;;;;;8.50;2.60;;;6.30;99.90;;;;;;4992271;28;20049;-57
2021/12/08 12:07:55;;;;;;;11.60;2.67;;;6.30;99.90;;;;;;5012115;28;20145;-58
2021/12/08 12:10:25;;;;;;;6.13;2.30;;;6.40;99.90;;;;;;5013363;28;20068;-58
2021/12/08 12:12:52;;;;;;;8.65;2.00;;;6.40;99.90;;;;;;4999909;28;20133;-59
2021/12/08 12:15:19;;;;;;;8.55;2.42;;;6.40;99.90;;;;;;5011961;28;20089;-59
2021/12/08 12:17:47;;;;;;;6.45;2.63;;;6.50;99.90;;;;;;5012728;28;20121;-58
2021/12/08 12:20:31;;;;;;;8.40;2.50;;;6.50;99.90;;;;;;5010525;28;20045;-59
2021/12/08 12:23:31;;;;;;;6.15;1.98;;;6.50;99.90;;;;;;4995998;28;20296;-58
2021/12/08 12:26:32;;;;;;;11.32;2.30;;;6.50;99.90;;;;;;5012364;28;20420;-58
2021/12/08 12:29:22;;;;;;;8.10;2.30;;;6.50;99.90;;;;;;5009460;28;20045;-56
2021/12/08 12:32:04;;;;;;;7.78;2.55;;;6.50;99.90;;;;;;5012894;28;20389;-58
2021/12/08 12:34:36;;;;;;;6.70;2.38;;;6.50;99.90;;;;;;5013469;28;20128;-58
2021/12/08 12:37:29;;;;;;;8.30;2.55;;;6.40;99.90;;;;;;5013155;28;20465;-58
2021/12/08 12:39:57;;;;;;;7.68;2.20;;;6.40;99.90;;;;;;5013790;28;20389;-58
2021/12/08 12:42:24;;;;;;;8.93;2.67;;;6.40;99.90;;;;;;5012571;28;20077;-57
2021/12/08 12:45:02;;;;;;;4.70;2.23;;;6.40;99.90;;;;;;5013602;28;20125;-57
2021/12/08 12:47:30;;;;;;;6.60;3.10;;;6.40;99.90;;;;;;5013525;28;20293;-57
2021/12/08 12:50:22;;;;;;;11.00;2.53;;;6.40;99.90;;;;;;5011053;28;20057;-57
2021/12/08 12:52:57;;;;;;;7.97;2.70;;;6.40;99.90;;;;;;5012851;28;20413;-57
2021/12/08 12:55:33;;;;;;;8.18;2.55;;;6.50;99.90;;;;;;5012513;28;20492;-58
2021/12/08 12:58:04;;;;;;;6.45;2.10;;;6.50;99.90;;;;;;5011741;28;20038;-57
2021/12/08 13:00:35;;;;;;;9.57;3.67;;;6.50;99.90;;;;;;5010749;28;20044;-58
2021/12/08 13:03:02;;;;;;;10.23;2.50;;;6.50;99.90;;;;;;5012307;28;20038;-58
2021/12/08 13:05:50;;;;;;;12.63;2.67;;;6.50;99.90;;;;;;5012089;28;20421;-58
2021/12/08 13:08:46;;;;;;;;;;;6.60;99.90;;;;;;5007576;28;20050;-57
2021/12/08 13:11:34;;;;;;;8.13;2.30;;;6.60;99.90;;;;;;4994496;28;19968;-58
2021/12/08 13:14:01;;;;;;;8.27;2.30;;;6.60;99.90;;;;;;5007998;28;20132;-57
2021/12/08 13:16:33;;;;;;;7.28;2.10;;;6.70;99.90;;;;;;4989810;28;20116;-58
2021/12/08 13:19:02;;;;;;;8.60;2.20;;;6.60;99.90;;;;;;5005931;28;20034;-57
2021/12/08 13:21:42;;;;;;;8.43;2.25;;;6.60;99.90;;;;;;5010150;28;20056;-58
2021/12/08 13:24:30;;;;;;;7.35;2.08;;;6.60;99.90;;;;;;5002796;28;20049;-58
2021/12/08 13:27:08;;;;;;;9.10;2.33;;;6.60;99.90;;;;;;5012302;28;20049;-57
2021/12/08 13:29:38;;;;;;;10.18;2.88;;;6.60;99.90;;;;;;5017694;28;20124;-58
2021/12/08 13:32:12;;;;;;;5.45;2.35;;;6.60;99.90;;;;;;5017791;28;20132;-58
2021/12/08 13:34:44;;;;;;;7.57;2.00;;;6.60;99.90;;;;;;5017228;28;20046;-58
2021/12/08 13:37:23;;;;;;;8.77;2.30;;;6.60;99.90;;;;;;5016736;28;20069;-59
2021/12/08 13:39:51;;;;;;;7.30;2.03;;;6.50;99.90;;;;;;5015693;28;20041;-58
2021/12/08 13:42:29;;;;;;;7.07;1.85;;;6.60;99.90;;;;;;5012910;28;20373;-58
2021/12/08 13:45:01;;;;;;;6.03;1.90;;;6.60;99.90;;;;;;5016454;28;20104;-57
2021/12/08 13:47:35;;;;;;;8.45;2.20;;;6.60;99.90;;;;;;5017112;28;20550;-58
2021/12/08 13:50:08;;;;;;;7.95;1.83;;;6.60;99.90;;;;;;5017365;28;20067;-57
2021/12/08 13:52:37;;;;;;;7.82;2.20;;;6.60;99.90;;;;;;4992548;28;20484;-58
2021/12/08 13:55:08;;;;;;;6.70;2.00;;;6.60;99.90;;;;;;5015540;28;20508;-57
2021/12/08 13:57:46;;;;;;;6.07;1.90;;;6.60;99.90;;;;;;5016284;28;20042;-58
2021/12/08 14:00:17;;;;;;;8.10;2.00;;;6.70;99.90;;;;;;5016550;28;20052;-58
2021/12/08 14:02:55;;;;;;;6.53;1.95;;;6.70;99.90;;;;;;5016714;28;20104;-58
2021/12/08 14:05:37;;;;;;;8.65;2.25;;;6.70;99.90;;;;;;4999308;28;20369;-58
2021/12/08 14:08:22;;;;;;;8.82;2.10;;;6.70;99.90;;;;;;5016484;28;20096;-57
2021/12/08 14:10:51;;;;;;;7.00;2.20;;;6.50;99.90;;;;;;5014743;28;20075;-58
2021/12/08 14:13:20;;;;;;;7.82;2.20;;;6.40;99.90;;;;;;5016714;28;20045;-58
2021/12/08 14:15:52;;;;;;;8.13;2.17;;;6.30;99.90;;;;;;5016137;28;20033;-58
2021/12/08 14:18:20;;;;;;;5.88;2.10;;;6.30;99.90;;;;;;5012957;28;20046;-58
2021/12/08 14:20:48;;;;;;;5.38;1.80;;;6.30;99.90;;;;;;4997152;28;20057;-58
2021/12/08 14:23:14;;;;;;;5.90;1.83;;;6.20;99.90;;;;;;5009373;28;20057;-58
2021/12/08 14:25:50;;;;;;;5.25;2.17;;;6.20;99.90;;;;;;5007272;28;20055;-59
2021/12/08 14:28:45;;;;;;;7.60;2.05;;;6.20;99.90;;;;;;5009628;28;20219;-57
2021/12/08 14:31:29;;;;;;;2.88;1.40;;;6.20;99.90;;;;;;5011818;28;20044;-58
2021/12/08 14:33:56;;;;;;;8.27;2.30;;;6.10;99.90;;;;;;5013272;28;20041;-58
2021/12/08 14:36:49;;;;;;;6.72;1.83;;;6.00;99.90;;;;;;5012763;28;20492;-58